sensor_id;sensor_type;location;lat;lon;timestamp;P1;durP1;ratioP1;P2;durP2;ratioP2
38226;SDS011;24026;49.446;8.576;2023-05-10T00:01:49;135.18;;;122.82;;
38226;SDS011;24026;49.446;8.576;2023-05-10T00:04:09;134.73;;;122.38;;
38226;SDS011;24026;49.446;8.576;2023-05-10T00:06:29;135.00;;;122.65;;
38226;SDS011;24026;49.446;8.576;2023-05-10T00:08:50;134.30;;;121.90;;
38226;SDS011;24026;49.446;8.576;2023-05-10T00:11:10;133.65;;;121.30;;
38226;SDS011;24026;49.446;8.576;2023-05-10T00:13:31;133.65;;;121.40;;
38226;SDS011;24026;49.446;8.576;2023-05-10T00:15:51;135.52;;;123.15;;
38226;SDS011;24026;49.446;8.576;2023-05-10T00:18:11;135.20;;;122.75;;
38226;SDS011;24026;49.446;8.576;2023-05-10T00:20:32;133.43;;;121.13;;
38226;SDS011;24026;49.446;8.576;2023-05-10T00:22:52;133.05;;;120.75;;
38226;SDS011;24026;49.446;8.576;2023-05-10T00:25:13;133.80;;;121.60;;
38226;SDS011;24026;49.446;8.576;2023-05-10T00:27:33;132.43;;;120.25;;
38226;SDS011;24026;49.446;8.576;2023-05-10T00:29:53;133.82;;;121.55;;
38226;SDS011;24026;49.446;8.576;2023-05-10T00:32:14;133.85;;;121.55;;
38226;SDS011;24026;49.446;8.576;2023-05-10T00:34:34;132.82;;;120.60;;
38226;SDS011;24026;49.446;8.576;2023-05-10T00:36:55;133.77;;;121.28;;
38226;SDS011;24026;49.446;8.576;2023-05-10T00:39:16;133.48;;;121.18;;
38226;SDS011;24026;49.446;8.576;2023-05-10T00:41:36;134.18;;;121.82;;
38226;SDS011;24026;49.446;8.576;2023-05-10T00:43:56;133.18;;;120.90;;
38226;SDS011;24026;49.446;8.576;2023-05-10T00:46:17;133.77;;;121.43;;
38226;SDS011;24026;49.446;8.576;2023-05-10T00:48:37;132.73;;;120.50;;
38226;SDS011;24026;49.446;8.576;2023-05-10T00:50:58;135.30;;;122.90;;
38226;SDS011;24026;49.446;8.576;2023-05-10T00:53:18;133.45;;;121.20;;
38226;SDS011;24026;49.446;8.576;2023-05-10T00:55:39;132.30;;;120.13;;
38226;SDS011;24026;49.446;8.576;2023-05-10T00:57:59;132.15;;;120.05;;
38226;SDS011;24026;49.446;8.576;2023-05-10T01:00:21;133.13;;;120.82;;
38226;SDS011;24026;49.446;8.576;2023-05-10T01:02:41;132.80;;;120.55;;
38226;SDS011;24026;49.446;8.576;2023-05-10T01:05:02;132.88;;;120.65;;
38226;SDS011;24026;49.446;8.576;2023-05-10T01:07:23;131.23;;;119.15;;
38226;SDS011;24026;49.446;8.576;2023-05-10T01:09:43;132.27;;;120.03;;
38226;SDS011;24026;49.446;8.576;2023-05-10T01:12:04;131.93;;;119.80;;
38226;SDS011;24026;49.446;8.576;2023-05-10T01:14:26;133.05;;;120.82;;
38226;SDS011;24026;49.446;8.576;2023-05-10T01:16:48;132.88;;;120.68;;
38226;SDS011;24026;49.446;8.576;2023-05-10T01:19:28;132.35;;;120.15;;
38226;SDS011;24026;49.446;8.576;2023-05-10T01:35:17;131.27;;;119.18;;
38226;SDS011;24026;49.446;8.576;2023-05-10T01:37:50;131.88;;;119.68;;
38226;SDS011;24026;49.446;8.576;2023-05-10T01:40:39;129.77;;;117.72;;
38226;SDS011;24026;49.446;8.576;2023-05-10T01:43:19;130.63;;;118.55;;
38226;SDS011;24026;49.446;8.576;2023-05-10T01:48:15;132.90;;;120.72;;
38226;SDS011;24026;49.446;8.576;2023-05-10T01:50:40;130.80;;;118.63;;
38226;SDS011;24026;49.446;8.576;2023-05-10T01:53:04;130.32;;;118.32;;
38226;SDS011;24026;49.446;8.576;2023-05-10T01:55:28;130.73;;;118.68;;
38226;SDS011;24026;49.446;8.576;2023-05-10T01:57:52;133.05;;;120.68;;
38226;SDS011;24026;49.446;8.576;2023-05-10T02:00:20;131.75;;;119.65;;
38226;SDS011;24026;49.446;8.576;2023-05-10T02:02:41;132.40;;;120.30;;
38226;SDS011;24026;49.446;8.576;2023-05-10T02:05:05;131.43;;;119.32;;
38226;SDS011;24026;49.446;8.576;2023-05-10T02:07:28;131.95;;;119.78;;
38226;SDS011;24026;49.446;8.576;2023-05-10T02:09:48;131.20;;;119.05;;
38226;SDS011;24026;49.446;8.576;2023-05-10T02:12:10;131.05;;;118.85;;
38226;SDS011;24026;49.446;8.576;2023-05-10T02:14:34;129.75;;;117.72;;
38226;SDS011;24026;49.446;8.576;2023-05-10T02:16:56;130.98;;;118.88;;
38226;SDS011;24026;49.446;8.576;2023-05-10T02:19:18;129.95;;;117.85;;
38226;SDS011;24026;49.446;8.576;2023-05-10T02:21:40;131.10;;;118.70;;
38226;SDS011;24026;49.446;8.576;2023-05-10T02:24:01;131.82;;;119.60;;
38226;SDS011;24026;49.446;8.576;2023-05-10T02:26:23;130.60;;;118.50;;
38226;SDS011;24026;49.446;8.576;2023-05-10T02:28:45;129.77;;;117.82;;
38226;SDS011;24026;49.446;8.576;2023-05-10T02:31:06;131.38;;;119.28;;
38226;SDS011;24026;49.446;8.576;2023-05-10T02:33:27;130.75;;;118.68;;
38226;SDS011;24026;49.446;8.576;2023-05-10T02:35:50;130.48;;;118.43;;
38226;SDS011;24026;49.446;8.576;2023-05-10T02:38:10;130.73;;;118.65;;
38226;SDS011;24026;49.446;8.576;2023-05-10T02:40:32;129.93;;;117.93;;
38226;SDS011;24026;49.446;8.576;2023-05-10T02:42:54;129.63;;;117.47;;
38226;SDS011;24026;49.446;8.576;2023-05-10T02:45:20;129.57;;;117.57;;
38226;SDS011;24026;49.446;8.576;2023-05-10T02:47:44;130.23;;;118.20;;
38226;SDS011;24026;49.446;8.576;2023-05-10T02:50:05;130.38;;;118.32;;
38226;SDS011;24026;49.446;8.576;2023-05-10T02:52:27;131.10;;;118.95;;
38226;SDS011;24026;49.446;8.576;2023-05-10T02:54:52;131.13;;;118.95;;
38226;SDS011;24026;49.446;8.576;2023-05-10T02:57:16;130.27;;;118.07;;
38226;SDS011;24026;49.446;8.576;2023-05-10T02:59:40;130.68;;;118.47;;
38226;SDS011;24026;49.446;8.576;2023-05-10T03:02:02;130.73;;;118.68;;
38226;SDS011;24026;49.446;8.576;2023-05-10T03:04:23;132.50;;;120.35;;
38226;SDS011;24026;49.446;8.576;2023-05-10T03:06:44;131.85;;;119.78;;
38226;SDS011;24026;49.446;8.576;2023-05-10T03:09:05;130.35;;;118.32;;
38226;SDS011;24026;49.446;8.576;2023-05-10T03:16:38;130.25;;;118.22;;
38226;SDS011;24026;49.446;8.576;2023-05-10T03:19:09;128.85;;;116.85;;
38226;SDS011;24026;49.446;8.576;2023-05-10T03:21:50;129.52;;;117.53;;
38226;SDS011;24026;49.446;8.576;2023-05-10T03:24:12;129.73;;;117.70;;
38226;SDS011;24026;49.446;8.576;2023-05-10T03:26:35;130.68;;;118.57;;
38226;SDS011;24026;49.446;8.576;2023-05-10T03:28:57;130.32;;;118.20;;
38226;SDS011;24026;49.446;8.576;2023-05-10T03:31:19;129.77;;;117.78;;
38226;SDS011;24026;49.446;8.576;2023-05-10T03:33:49;130.23;;;118.25;;
38226;SDS011;24026;49.446;8.576;2023-05-10T03:36:10;129.70;;;117.70;;
38226;SDS011;24026;49.446;8.576;2023-05-10T03:38:30;129.35;;;117.32;;
38226;SDS011;24026;49.446;8.576;2023-05-10T03:40:51;128.90;;;116.97;;
38226;SDS011;24026;49.446;8.576;2023-05-10T03:43:11;128.98;;;116.88;;
38226;SDS011;24026;49.446;8.576;2023-05-10T03:45:32;129.02;;;117.03;;
38226;SDS011;24026;49.446;8.576;2023-05-10T03:47:52;129.10;;;117.18;;
38226;SDS011;24026;49.446;8.576;2023-05-10T03:50:12;129.13;;;117.18;;
38226;SDS011;24026;49.446;8.576;2023-05-10T03:52:33;128.73;;;116.68;;
38226;SDS011;24026;49.446;8.576;2023-05-10T03:54:53;127.60;;;115.72;;
38226;SDS011;24026;49.446;8.576;2023-05-10T03:57:13;128.55;;;116.55;;
38226;SDS011;24026;49.446;8.576;2023-05-10T03:59:34;127.60;;;115.75;;
38226;SDS011;24026;49.446;8.576;2023-05-10T04:01:54;129.38;;;117.43;;
38226;SDS011;24026;49.446;8.576;2023-05-10T04:04:14;129.35;;;117.35;;
38226;SDS011;24026;49.446;8.576;2023-05-10T04:06:35;128.80;;;116.60;;
38226;SDS011;24026;49.446;8.576;2023-05-10T04:08:55;128.95;;;116.85;;
38226;SDS011;24026;49.446;8.576;2023-05-10T04:11:16;127.82;;;115.78;;
38226;SDS011;24026;49.446;8.576;2023-05-10T04:13:36;128.70;;;116.78;;
38226;SDS011;24026;49.446;8.576;2023-05-10T04:15:58;127.97;;;116.10;;
38226;SDS011;24026;49.446;8.576;2023-05-10T04:18:18;127.72;;;115.82;;
38226;SDS011;24026;49.446;8.576;2023-05-10T04:20:38;127.75;;;115.90;;
38226;SDS011;24026;49.446;8.576;2023-05-10T04:22:59;128.30;;;116.40;;
38226;SDS011;24026;49.446;8.576;2023-05-10T04:25:19;128.13;;;116.18;;
38226;SDS011;24026;49.446;8.576;2023-05-10T04:27:39;127.63;;;115.78;;
38226;SDS011;24026;49.446;8.576;2023-05-10T04:30:00;128.65;;;116.72;;
38226;SDS011;24026;49.446;8.576;2023-05-10T04:32:21;128.75;;;116.85;;
38226;SDS011;24026;49.446;8.576;2023-05-10T04:34:41;128.13;;;116.28;;
38226;SDS011;24026;49.446;8.576;2023-05-10T04:37:01;128.60;;;116.60;;
38226;SDS011;24026;49.446;8.576;2023-05-10T04:39:22;128.52;;;116.63;;
38226;SDS011;24026;49.446;8.576;2023-05-10T04:41:42;128.15;;;116.15;;
38226;SDS011;24026;49.446;8.576;2023-05-10T04:44:02;128.65;;;116.65;;
38226;SDS011;24026;49.446;8.576;2023-05-10T04:46:23;128.95;;;116.93;;
38226;SDS011;24026;49.446;8.576;2023-05-10T04:48:43;129.63;;;117.68;;
38226;SDS011;24026;49.446;8.576;2023-05-10T04:51:04;128.27;;;116.32;;
38226;SDS011;24026;49.446;8.576;2023-05-10T04:53:26;127.82;;;115.93;;
38226;SDS011;24026;49.446;8.576;2023-05-10T04:55:48;127.10;;;115.10;;
38226;SDS011;24026;49.446;8.576;2023-05-10T04:58:09;128.85;;;116.85;;
38226;SDS011;24026;49.446;8.576;2023-05-10T05:00:30;127.68;;;115.82;;
38226;SDS011;24026;49.446;8.576;2023-05-10T05:02:50;127.25;;;115.38;;
38226;SDS011;24026;49.446;8.576;2023-05-10T05:05:11;127.78;;;115.95;;
38226;SDS011;24026;49.446;8.576;2023-05-10T05:07:32;128.07;;;116.22;;
38226;SDS011;24026;49.446;8.576;2023-05-10T05:09:54;129.82;;;117.75;;
38226;SDS011;24026;49.446;8.576;2023-05-10T05:12:15;129.32;;;117.43;;
38226;SDS011;24026;49.446;8.576;2023-05-10T05:14:35;128.48;;;116.57;;
38226;SDS011;24026;49.446;8.576;2023-05-10T05:16:56;129.38;;;117.45;;
38226;SDS011;24026;49.446;8.576;2023-05-10T05:19:18;128.00;;;116.05;;
38226;SDS011;24026;49.446;8.576;2023-05-10T05:21:38;128.32;;;116.45;;
38226;SDS011;24026;49.446;8.576;2023-05-10T05:24:05;128.73;;;116.57;;
38226;SDS011;24026;49.446;8.576;2023-05-10T05:26:40;128.70;;;116.68;;
38226;SDS011;24026;49.446;8.576;2023-05-10T05:29:02;128.27;;;116.38;;
38226;SDS011;24026;49.446;8.576;2023-05-10T05:31:22;129.27;;;117.10;;
38226;SDS011;24026;49.446;8.576;2023-05-10T05:33:44;131.90;;;119.70;;
38226;SDS011;24026;49.446;8.576;2023-05-10T05:36:05;132.32;;;119.82;;
38226;SDS011;24026;49.446;8.576;2023-05-10T05:38:26;132.10;;;119.65;;
38226;SDS011;24026;49.446;8.576;2023-05-10T05:40:48;135.82;;;122.78;;
38226;SDS011;24026;49.446;8.576;2023-05-10T05:43:12;138.60;;;125.30;;
38226;SDS011;24026;49.446;8.576;2023-05-10T05:45:34;145.80;;;131.80;;
38226;SDS011;24026;49.446;8.576;2023-05-10T05:47:57;159.82;;;144.20;;
38226;SDS011;24026;49.446;8.576;2023-05-10T05:50:19;166.23;;;149.40;;
38226;SDS011;24026;49.446;8.576;2023-05-10T05:52:41;182.88;;;164.60;;
38226;SDS011;24026;49.446;8.576;2023-05-10T05:55:04;205.38;;;184.70;;
38226;SDS011;24026;49.446;8.576;2023-05-10T05:57:25;207.23;;;186.30;;
38226;SDS011;24026;49.446;8.576;2023-05-10T05:59:46;213.38;;;191.60;;
38226;SDS011;24026;49.446;8.576;2023-05-10T06:02:08;209.93;;;188.43;;
38226;SDS011;24026;49.446;8.576;2023-05-10T06:04:28;203.38;;;182.00;;
38226;SDS011;24026;49.446;8.576;2023-05-10T06:06:49;199.50;;;179.05;;
38226;SDS011;24026;49.446;8.576;2023-05-10T06:09:09;194.25;;;173.63;;
38226;SDS011;24026;49.446;8.576;2023-05-10T06:11:30;196.77;;;175.77;;
38226;SDS011;24026;49.446;8.576;2023-05-10T06:13:52;190.30;;;170.63;;
38226;SDS011;24026;49.446;8.576;2023-05-10T06:16:12;191.85;;;171.60;;
38226;SDS011;24026;49.446;8.576;2023-05-10T06:18:33;233.45;;;189.50;;
38226;SDS011;24026;49.446;8.576;2023-05-10T06:20:55;351.05;;;224.13;;
38226;SDS011;24026;49.446;8.576;2023-05-10T06:23:16;280.20;;;201.55;;
38226;SDS011;24026;49.446;8.576;2023-05-10T06:25:36;323.52;;;215.07;;
38226;SDS011;24026;49.446;8.576;2023-05-10T06:27:57;336.70;;;219.80;;
38226;SDS011;24026;49.446;8.576;2023-05-10T06:30:17;335.15;;;216.30;;
38226;SDS011;24026;49.446;8.576;2023-05-10T06:32:38;334.48;;;218.57;;
38226;SDS011;24026;49.446;8.576;2023-05-10T06:34:58;362.40;;;223.77;;
38226;SDS011;24026;49.446;8.576;2023-05-10T06:37:19;250.45;;;181.95;;
38226;SDS011;24026;49.446;8.576;2023-05-10T06:39:39;248.73;;;181.10;;
38226;SDS011;24026;49.446;8.576;2023-05-10T06:42:01;222.52;;;169.50;;
38226;SDS011;24026;49.446;8.576;2023-05-10T06:44:26;206.15;;;161.48;;
38226;SDS011;24026;49.446;8.576;2023-05-10T06:46:47;189.60;;;157.63;;
38226;SDS011;24026;49.446;8.576;2023-05-10T06:49:08;170.98;;;150.95;;
38226;SDS011;24026;49.446;8.576;2023-05-10T06:51:28;174.75;;;151.93;;
38226;SDS011;24026;49.446;8.576;2023-05-10T06:53:51;179.63;;;151.88;;
38226;SDS011;24026;49.446;8.576;2023-05-10T06:56:13;170.30;;;151.75;;
38226;SDS011;24026;49.446;8.576;2023-05-10T06:58:34;169.70;;;152.00;;
38226;SDS011;24026;49.446;8.576;2023-05-10T07:01:01;174.63;;;155.98;;
38226;SDS011;24026;49.446;8.576;2023-05-10T07:03:22;173.70;;;155.60;;
38226;SDS011;24026;49.446;8.576;2023-05-10T07:05:44;177.90;;;159.40;;
38226;SDS011;24026;49.446;8.576;2023-05-10T07:08:06;179.95;;;161.13;;
38226;SDS011;24026;49.446;8.576;2023-05-10T07:10:26;182.95;;;163.80;;
38226;SDS011;24026;49.446;8.576;2023-05-10T07:12:47;179.85;;;160.93;;
38226;SDS011;24026;49.446;8.576;2023-05-10T07:15:09;175.85;;;158.27;;
38226;SDS011;24026;49.446;8.576;2023-05-10T07:17:32;173.80;;;156.02;;
38226;SDS011;24026;49.446;8.576;2023-05-10T07:19:54;177.20;;;158.85;;
38226;SDS011;24026;49.446;8.576;2023-05-10T07:22:14;172.95;;;154.77;;
38226;SDS011;24026;49.446;8.576;2023-05-10T07:24:36;170.77;;;153.23;;
38226;SDS011;24026;49.446;8.576;2023-05-10T07:26:58;168.52;;;151.13;;
38226;SDS011;24026;49.446;8.576;2023-05-10T07:29:22;169.90;;;152.07;;
38226;SDS011;24026;49.446;8.576;2023-05-10T07:31:42;169.77;;;151.98;;
38226;SDS011;24026;49.446;8.576;2023-05-10T07:34:03;168.93;;;151.07;;
38226;SDS011;24026;49.446;8.576;2023-05-10T07:36:23;165.52;;;148.15;;
38226;SDS011;24026;49.446;8.576;2023-05-10T07:38:44;167.65;;;149.68;;
38226;SDS011;24026;49.446;8.576;2023-05-10T07:41:05;162.48;;;145.60;;
38226;SDS011;24026;49.446;8.576;2023-05-10T07:43:26;166.10;;;148.93;;
38226;SDS011;24026;49.446;8.576;2023-05-10T07:45:46;164.38;;;147.18;;
38226;SDS011;24026;49.446;8.576;2023-05-10T07:48:07;167.82;;;150.45;;
38226;SDS011;24026;49.446;8.576;2023-05-10T07:50:28;165.98;;;148.38;;
38226;SDS011;24026;49.446;8.576;2023-05-10T07:52:49;167.30;;;150.52;;
38226;SDS011;24026;49.446;8.576;2023-05-10T07:55:11;165.25;;;148.50;;
38226;SDS011;24026;49.446;8.576;2023-05-10T07:57:33;165.48;;;148.02;;
38226;SDS011;24026;49.446;8.576;2023-05-10T07:59:54;166.75;;;149.93;;
38226;SDS011;24026;49.446;8.576;2023-05-10T08:02:16;166.55;;;149.07;;
38226;SDS011;24026;49.446;8.576;2023-05-10T08:04:37;166.60;;;148.88;;
38226;SDS011;24026;49.446;8.576;2023-05-10T08:06:59;166.50;;;149.32;;
38226;SDS011;24026;49.446;8.576;2023-05-10T08:09:22;173.32;;;155.45;;
38226;SDS011;24026;49.446;8.576;2023-05-10T08:11:43;173.75;;;156.07;;
38226;SDS011;24026;49.446;8.576;2023-05-10T08:14:04;170.55;;;153.15;;
38226;SDS011;24026;49.446;8.576;2023-05-10T08:16:24;172.98;;;155.45;;
38226;SDS011;24026;49.446;8.576;2023-05-10T08:18:45;177.43;;;159.65;;
38226;SDS011;24026;49.446;8.576;2023-05-10T08:21:07;204.55;;;183.85;;
38226;SDS011;24026;49.446;8.576;2023-05-10T08:23:36;187.73;;;168.50;;
38226;SDS011;24026;49.446;8.576;2023-05-10T08:25:57;185.07;;;166.38;;
38226;SDS011;24026;49.446;8.576;2023-05-10T08:28:17;208.77;;;187.35;;
38226;SDS011;24026;49.446;8.576;2023-05-10T08:30:38;211.80;;;190.25;;
38226;SDS011;24026;49.446;8.576;2023-05-10T08:32:58;215.85;;;193.43;;
38226;SDS011;24026;49.446;8.576;2023-05-10T08:35:18;205.68;;;185.20;;
38226;SDS011;24026;49.446;8.576;2023-05-10T08:37:39;215.02;;;193.35;;
38226;SDS011;24026;49.446;8.576;2023-05-10T08:40:00;217.45;;;195.15;;
38226;SDS011;24026;49.446;8.576;2023-05-10T08:42:21;220.18;;;197.80;;
38226;SDS011;24026;49.446;8.576;2023-05-10T08:44:45;213.73;;;191.90;;
38226;SDS011;24026;49.446;8.576;2023-05-10T08:47:08;208.95;;;187.68;;
38226;SDS011;24026;49.446;8.576;2023-05-10T08:49:31;219.55;;;197.13;;
38226;SDS011;24026;49.446;8.576;2023-05-10T08:51:55;217.88;;;195.85;;
38226;SDS011;24026;49.446;8.576;2023-05-10T08:54:18;218.85;;;196.90;;
38226;SDS011;24026;49.446;8.576;2023-05-10T08:56:40;219.18;;;197.30;;
38226;SDS011;24026;49.446;8.576;2023-05-10T08:59:02;213.30;;;192.07;;
38226;SDS011;24026;49.446;8.576;2023-05-10T09:01:23;201.85;;;181.20;;
38226;SDS011;24026;49.446;8.576;2023-05-10T09:03:46;198.05;;;178.13;;
38226;SDS011;24026;49.446;8.576;2023-05-10T09:06:07;199.07;;;178.90;;
38226;SDS011;24026;49.446;8.576;2023-05-10T09:08:28;198.00;;;178.00;;
38226;SDS011;24026;49.446;8.576;2023-05-10T09:10:50;194.80;;;175.02;;
38226;SDS011;24026;49.446;8.576;2023-05-10T09:13:13;191.80;;;172.18;;
38226;SDS011;24026;49.446;8.576;2023-05-10T09:15:35;205.02;;;183.68;;
38226;SDS011;24026;49.446;8.576;2023-05-10T09:17:55;201.82;;;180.73;;
38226;SDS011;24026;49.446;8.576;2023-05-10T09:20:16;203.05;;;182.43;;
38226;SDS011;24026;49.446;8.576;2023-05-10T09:22:37;199.57;;;179.57;;
38226;SDS011;24026;49.446;8.576;2023-05-10T09:25:10;194.38;;;174.63;;
38226;SDS011;24026;49.446;8.576;2023-05-10T09:27:32;195.10;;;175.82;;
38226;SDS011;24026;49.446;8.576;2023-05-10T09:29:53;191.18;;;172.05;;
38226;SDS011;24026;49.446;8.576;2023-05-10T09:32:15;189.07;;;169.93;;
38226;SDS011;24026;49.446;8.576;2023-05-10T09:34:36;188.68;;;170.23;;
38226;SDS011;24026;49.446;8.576;2023-05-10T09:37:01;193.43;;;173.77;;
38226;SDS011;24026;49.446;8.576;2023-05-10T09:41:52;194.25;;;174.55;;
38226;SDS011;24026;49.446;8.576;2023-05-10T09:44:16;191.75;;;172.27;;
38226;SDS011;24026;49.446;8.576;2023-05-10T09:46:38;192.93;;;173.20;;
38226;SDS011;24026;49.446;8.576;2023-05-10T09:48:59;187.60;;;168.88;;
38226;SDS011;24026;49.446;8.576;2023-05-10T09:51:23;185.52;;;167.27;;
38226;SDS011;24026;49.446;8.576;2023-05-10T09:53:44;186.88;;;168.57;;
38226;SDS011;24026;49.446;8.576;2023-05-10T09:56:05;191.57;;;172.55;;
38226;SDS011;24026;49.446;8.576;2023-05-10T09:58:26;187.30;;;168.80;;
38226;SDS011;24026;49.446;8.576;2023-05-10T10:00:46;185.48;;;166.88;;
38226;SDS011;24026;49.446;8.576;2023-05-10T10:03:13;178.75;;;160.93;;
38226;SDS011;24026;49.446;8.576;2023-05-10T10:05:35;179.13;;;161.55;;
38226;SDS011;24026;49.446;8.576;2023-05-10T10:07:59;185.60;;;167.23;;
38226;SDS011;24026;49.446;8.576;2023-05-10T10:10:20;184.55;;;166.60;;
38226;SDS011;24026;49.446;8.576;2023-05-10T10:12:41;187.15;;;168.52;;
38226;SDS011;24026;49.446;8.576;2023-05-10T10:15:01;185.68;;;167.25;;
38226;SDS011;24026;49.446;8.576;2023-05-10T10:17:22;187.05;;;168.38;;
38226;SDS011;24026;49.446;8.576;2023-05-10T10:19:48;184.10;;;166.27;;
38226;SDS011;24026;49.446;8.576;2023-05-10T10:22:09;183.60;;;165.38;;
38226;SDS011;24026;49.446;8.576;2023-05-10T10:24:32;185.40;;;167.23;;
38226;SDS011;24026;49.446;8.576;2023-05-10T10:26:54;184.65;;;165.93;;
38226;SDS011;24026;49.446;8.576;2023-05-10T10:29:26;180.95;;;163.27;;
38226;SDS011;24026;49.446;8.576;2023-05-10T10:31:55;181.75;;;163.82;;
38226;SDS011;24026;49.446;8.576;2023-05-10T10:34:22;182.85;;;164.85;;
38226;SDS011;24026;49.446;8.576;2023-05-10T10:36:47;181.63;;;163.75;;
38226;SDS011;24026;49.446;8.576;2023-05-10T10:39:09;179.52;;;162.27;;
38226;SDS011;24026;49.446;8.576;2023-05-10T10:41:34;180.20;;;162.45;;
38226;SDS011;24026;49.446;8.576;2023-05-10T10:47:45;176.82;;;159.57;;
38226;SDS011;24026;49.446;8.576;2023-05-10T10:49:51;181.45;;;163.48;;
38226;SDS011;24026;49.446;8.576;2023-05-10T10:55:05;180.35;;;161.77;;
38226;SDS011;24026;49.446;8.576;2023-05-10T10:59:51;175.52;;;158.35;;
38226;SDS011;24026;49.446;8.576;2023-05-10T11:04:57;176.85;;;159.65;;
38226;SDS011;24026;49.446;8.576;2023-05-10T11:07:17;177.50;;;160.05;;
38226;SDS011;24026;49.446;8.576;2023-05-10T11:09:39;175.85;;;158.98;;
38226;SDS011;24026;49.446;8.576;2023-05-10T11:12:07;174.32;;;157.55;;
38226;SDS011;24026;49.446;8.576;2023-05-10T11:14:28;174.63;;;157.45;;
38226;SDS011;24026;49.446;8.576;2023-05-10T11:16:51;174.95;;;158.02;;
38226;SDS011;24026;49.446;8.576;2023-05-10T11:19:13;176.68;;;159.85;;
38226;SDS011;24026;49.446;8.576;2023-05-10T11:21:44;172.43;;;155.68;;
38226;SDS011;24026;49.446;8.576;2023-05-10T11:24:13;173.50;;;156.82;;
38226;SDS011;24026;49.446;8.576;2023-05-10T11:26:35;172.25;;;155.57;;
38226;SDS011;24026;49.446;8.576;2023-05-10T11:28:56;174.48;;;157.27;;
38226;SDS011;24026;49.446;8.576;2023-05-10T11:31:18;174.38;;;157.65;;
38226;SDS011;24026;49.446;8.576;2023-05-10T11:33:58;176.43;;;159.15;;
38226;SDS011;24026;49.446;8.576;2023-05-10T11:36:23;173.20;;;156.70;;
38226;SDS011;24026;49.446;8.576;2023-05-10T11:38:47;172.18;;;155.35;;
38226;SDS011;24026;49.446;8.576;2023-05-10T11:41:09;170.60;;;153.60;;
38226;SDS011;24026;49.446;8.576;2023-05-10T11:43:32;171.70;;;155.02;;
38226;SDS011;24026;49.446;8.576;2023-05-10T11:45:53;165.60;;;149.57;;
38226;SDS011;24026;49.446;8.576;2023-05-10T11:48:16;175.45;;;158.07;;
38226;SDS011;24026;49.446;8.576;2023-05-10T11:50:43;170.55;;;153.80;;
38226;SDS011;24026;49.446;8.576;2023-05-10T11:53:05;170.82;;;153.68;;
38226;SDS011;24026;49.446;8.576;2023-05-10T11:55:25;181.20;;;163.00;;
38226;SDS011;24026;49.446;8.576;2023-05-10T11:57:46;185.60;;;167.02;;
38226;SDS011;24026;49.446;8.576;2023-05-10T12:00:07;205.95;;;184.80;;
38226;SDS011;24026;49.446;8.576;2023-05-10T12:02:28;231.77;;;207.88;;
38226;SDS011;24026;49.446;8.576;2023-05-10T12:04:51;261.30;;;234.02;;
38226;SDS011;24026;49.446;8.576;2023-05-10T12:07:12;257.17;;;230.38;;
38226;SDS011;24026;49.446;8.576;2023-05-10T12:09:32;235.63;;;210.10;;
38226;SDS011;24026;49.446;8.576;2023-05-10T12:11:55;212.25;;;189.00;;
38226;SDS011;24026;49.446;8.576;2023-05-10T12:14:16;228.68;;;199.23;;
38226;SDS011;24026;49.446;8.576;2023-05-10T12:16:37;230.90;;;203.50;;
38226;SDS011;24026;49.446;8.576;2023-05-10T12:18:58;234.20;;;208.35;;
38226;SDS011;24026;49.446;8.576;2023-05-10T12:21:20;236.88;;;210.07;;
38226;SDS011;24026;49.446;8.576;2023-05-10T12:23:42;234.77;;;209.35;;
38226;SDS011;24026;49.446;8.576;2023-05-10T12:26:08;243.18;;;217.68;;
38226;SDS011;24026;49.446;8.576;2023-05-10T12:28:32;244.15;;;218.63;;
38226;SDS011;24026;49.446;8.576;2023-05-10T12:30:53;244.68;;;219.65;;
38226;SDS011;24026;49.446;8.576;2023-05-10T12:33:15;244.68;;;218.70;;
38226;SDS011;24026;49.446;8.576;2023-05-10T12:35:50;248.40;;;222.85;;
38226;SDS011;24026;49.446;8.576;2023-05-10T12:40:51;260.70;;;234.45;;
38226;SDS011;24026;49.446;8.576;2023-05-10T12:43:11;272.95;;;244.05;;
38226;SDS011;24026;49.446;8.576;2023-05-10T12:45:33;297.17;;;261.20;;
38226;SDS011;24026;49.446;8.576;2023-05-10T12:47:54;299.45;;;267.85;;
38226;SDS011;24026;49.446;8.576;2023-05-10T12:50:16;301.30;;;269.77;;
38226;SDS011;24026;49.446;8.576;2023-05-10T12:52:38;284.25;;;255.18;;
38226;SDS011;24026;49.446;8.576;2023-05-10T12:54:59;294.65;;;263.67;;
38226;SDS011;24026;49.446;8.576;2023-05-10T12:57:21;280.05;;;251.68;;
38226;SDS011;24026;49.446;8.576;2023-05-10T12:59:43;278.60;;;250.32;;
38226;SDS011;24026;49.446;8.576;2023-05-10T13:02:05;277.15;;;249.40;;
38226;SDS011;24026;49.446;8.576;2023-05-10T13:04:27;270.25;;;242.32;;
38226;SDS011;24026;49.446;8.576;2023-05-10T13:06:49;269.25;;;240.73;;
38226;SDS011;24026;49.446;8.576;2023-05-10T13:09:11;269.75;;;235.38;;
38226;SDS011;24026;49.446;8.576;2023-05-10T13:11:32;269.33;;;237.15;;
38226;SDS011;24026;49.446;8.576;2023-05-10T13:13:52;298.52;;;221.50;;
38226;SDS011;24026;49.446;8.576;2023-05-10T13:16:12;272.08;;;243.40;;
38226;SDS011;24026;49.446;8.576;2023-05-10T13:18:33;257.48;;;223.02;;
38226;SDS011;24026;49.446;8.576;2023-05-10T13:20:53;269.05;;;214.35;;
38226;SDS011;24026;49.446;8.576;2023-05-10T13:23:15;264.17;;;216.13;;
38226;SDS011;24026;49.446;8.576;2023-05-10T13:25:37;253.02;;;209.38;;
38226;SDS011;24026;49.446;8.576;2023-05-10T13:27:59;275.33;;;205.18;;
38226;SDS011;24026;49.446;8.576;2023-05-10T13:30:24;394.75;;;234.10;;
38226;SDS011;24026;49.446;8.576;2023-05-10T13:32:47;380.65;;;235.10;;
38226;SDS011;24026;49.446;8.576;2023-05-10T13:35:08;450.65;;;290.67;;
38226;SDS011;24026;49.446;8.576;2023-05-10T13:37:33;365.10;;;238.52;;
38226;SDS011;24026;49.446;8.576;2023-05-10T13:40:00;301.55;;;213.65;;
38226;SDS011;24026;49.446;8.576;2023-05-10T13:42:23;287.25;;;210.25;;
38226;SDS011;24026;49.446;8.576;2023-05-10T13:44:44;271.20;;;194.43;;
38226;SDS011;24026;49.446;8.576;2023-05-10T13:47:05;216.45;;;167.50;;
38226;SDS011;24026;49.446;8.576;2023-05-10T13:49:26;202.07;;;160.43;;
38226;SDS011;24026;49.446;8.576;2023-05-10T13:51:48;197.77;;;159.02;;
38226;SDS011;24026;49.446;8.576;2023-05-10T13:54:08;222.45;;;150.45;;
38226;SDS011;24026;49.446;8.576;2023-05-10T13:56:31;221.57;;;156.80;;
38226;SDS011;24026;49.446;8.576;2023-05-10T13:58:51;206.63;;;154.25;;
38226;SDS011;24026;49.446;8.576;2023-05-10T14:01:12;180.27;;;143.80;;
38226;SDS011;24026;49.446;8.576;2023-05-10T14:03:33;200.20;;;154.68;;
38226;SDS011;24026;49.446;8.576;2023-05-10T14:05:53;226.82;;;162.20;;